Flight Track Log - Related Links

Times and Time Zones

All times are in EDT time to prevent confusion due to time zone crossing. See the AAL1459 flight status page for this flight to view local times or setup timezone preferences in your user account.

Time Position Orientation Groundspeed Altitude Reporting Facility
EDT Latitude Longitude Course Direction KTS MPH feet Rate Location/Type
Tue 02:12:52 PM 42.3830 -70.9960 21° North 174 200 1,300  Level FlightAware ADS-B
Tue 02:13:17 PM 42.4040 -70.9850 21° North 191 220 2,100 1,650 Climbing FlightAware ADS-B
Tue 02:13:32 PM 42.4180 -70.9780 20° North 221 254 2,400 1,200 Climbing FlightAware ADS-B
Tue 02:13:47 PM 42.4310 -70.9680 30° Northeast 226 260 2,700 960 Climbing FlightAware ADS-B
Tue 02:13:57 PM 42.4390 -70.9570 45° Northeast 238 274 2,800 960 Climbing FlightAware ADS-B
Tue 02:14:12 PM 42.4460 -70.9360 66° East 248 285 3,100 1,200 Climbing FlightAware ADS-B
Tue 02:14:42 PM 42.4590 -70.8910 69° East 257 296 3,700 1,067 Climbing FlightAware ADS-B
Tue 02:14:57 PM 42.4730 -70.8780 34° Northeast 251 289 3,900 600 Climbing FlightAware ADS-B
Tue 02:15:12 PM 42.4900 -70.8740 10° North 245 282 4,000  Climbing FlightAware ADS-B
Tue 02:15:37 PM 42.5160 -70.8900 336° Northwest 242 278 3,900 150 Descending FlightAware ADS-B
Tue 02:15:52 PM 42.5270 -70.9080 310° West 237 273 4,100 1,867 Climbing FlightAware ADS-B
Tue 02:16:22 PM 42.5500 -70.9420 313° West 255 293 5,300 2,945 Climbing FlightAware ADS-B
Tue 02:16:47 PM 42.5720 -70.9710 316° Northwest 257 296 6,800 3,600 Climbing FlightAware ADS-B
Tue 02:17:17 PM 42.5950 -71.0050 313° West 240 276 8,600 3,333 Climbing FlightAware ADS-B
Tue 02:17:32 PM 42.6070 -71.0220 314° West 246 283 9,300 2,291 Climbing FlightAware ADS-B
Tue 02:18:12 PM 42.6410 -71.0710 313° West 269 310 10,700 1,800 Climbing FlightAware ADS-B
Tue 02:18:52 PM 42.6770 -71.1240 313° West 309 356 11,700 1,835 Climbing FlightAware ADS-B
Tue 02:19:37 PM 42.7240 -71.1940 312° West 342 394 13,300 2,329 Climbing FlightAware ADS-B
Tue 02:20:17 PM 42.7660 -71.2570 312° West 349 402 15,000 2,829 Climbing FlightAware ADS-B
Tue 02:20:47 PM 42.7870 -71.3210 294° West 359 413 16,600 2,880 Climbing FlightAware ADS-B
Tue 02:21:32 PM 42.7970 -71.4230 278° West 372 428 18,600 2,625 Climbing FlightAware ADS-B
Tue 02:22:07 PM 42.8040 -71.4990 277° West 372 428 20,100 2,700 Climbing FlightAware ADS-B
Tue 02:22:52 PM 42.8140 -71.6180 277° West 378 435 22,200 2,259 Climbing FlightAware ADS-B
Tue 02:23:32 PM 42.8240 -71.7140 278° West 384 442 23,300 1,906 Climbing FlightAware ADS-B
Tue 02:24:17 PM 42.8340 -71.8240 277° West 389 448 24,900 1,906 Climbing FlightAware ADS-B
Tue 02:24:57 PM 42.8430 -71.9230 277° West 397 457 26,000 1,650 Climbing FlightAware ADS-B
Tue 02:25:37 PM 42.8520 -72.0220 277° West 404 465 27,100 1,482 Climbing FlightAware ADS-B
Tue 02:26:22 PM 42.8630 -72.1330 278° West 413 475 28,100 1,271 Climbing FlightAware ADS-B
Tue 02:27:02 PM 42.8720 -72.2380 277° West 422 486 28,900 1,412 Climbing FlightAware ADS-B
Tue 02:27:47 PM 42.8830 -72.3600 277° West 426 490 30,100 1,624 Climbing FlightAware ADS-B
Tue 02:28:27 PM 42.8920 -72.4680 277° West 422 486 31,200 1,341 Climbing FlightAware ADS-B
Tue 02:29:12 PM 42.9030 -72.5840 277° West 432 497 32,000 1,200 Climbing FlightAware ADS-B
Tue 02:29:52 PM 42.9120 -72.6910 277° West 429 494 32,900 1,425 Climbing FlightAware ADS-B
Tue 02:30:32 PM 42.9210 -72.7990 277° West 425 489 33,900 1,412 Climbing FlightAware ADS-B
Tue 02:31:17 PM 42.9310 -72.9160 277° West 423 487 34,900 1,271 Climbing FlightAware ADS-B
Tue 02:31:57 PM 42.9400 -73.0240 277° West 421 484 35,700 635 Climbing FlightAware ADS-B
Tue 02:32:42 PM 42.9490 -73.1290 277° West 421 484 35,800 533 Climbing FlightAware ADS-B
Tue 02:33:27 PM 42.9570 -73.2330 276° West 421 484 36,500 442 Climbing FlightAware ADS-B
Tue 02:34:17 PM 42.9660 -73.3450 276° West 421 484 36,500 988 Level FlightAware ADS-B
Tue 02:34:52 PM 42.9770 -73.4750 277° West 425 489 37,900 1,000 Climbing FlightAware ADS-B
Tue 02:35:47 PM 42.9880 -73.6070 277° West 426 490 38,000 60 Climbing FlightAware ADS-B
Tue 02:36:32 PM 42.9980 -73.7180 277° West 426 490 38,000  Level FlightAware ADS-B
Tue 02:37:22 PM 43.0090 -73.8870 275° West 426 490 38,000  Level FlightAware ADS-B
Tue 02:38:02 PM 43.0170 -73.9930 276° West 425 489 38,000  Level FlightAware ADS-B
Tue 02:38:42 PM 43.0250 -74.0980 276° West 424 488 38,000  Level FlightAware ADS-B
Tue 02:39:27 PM 43.0340 -74.2220 276° West 424 488 38,000  Level FlightAware ADS-B
Tue 02:40:22 PM 43.0430 -74.3510 275° West 424 488 38,000  Level FlightAware ADS-B
Tue 02:41:02 PM 43.0480 -74.4420 274° West 424 488 38,000  Level FlightAware ADS-B
Tue 02:41:47 PM 43.0600 -74.5870 277° West 422 486 38,000  Level FlightAware ADS-B
Tue 02:42:32 PM 43.0680 -74.7060 275° West 426 490 38,000  Level FlightAware ADS-B
Tue 02:43:12 PM 43.0750 -74.8130 275° West 428 493 38,000  Level FlightAware ADS-B
Tue 02:43:52 PM 43.0830 -74.9220 276° West 428 493 38,000  Level FlightAware ADS-B
Tue 02:44:37 PM 43.0900 -75.0360 275° West 427 491 38,000  Level FlightAware ADS-B
Tue 02:45:07 PM 43.0960 -75.1210 276° West 424 488 38,000  Level FlightAware ADS-B
Tue 02:45:47 PM 43.1020 -75.2270 274° West 419 482 38,000  Level FlightAware ADS-B
Tue 02:46:27 PM 43.1090 -75.3320 275° West 420 483 38,000  Level FlightAware ADS-B
Tue 02:47:07 PM 43.1150 -75.4390 274° West 420 483 38,000  Level FlightAware ADS-B
Tue 02:47:52 PM 43.1230 -75.5550 275° West 421 484 38,000  Level FlightAware ADS-B
Tue 02:48:32 PM 43.1300 -75.6670 275° West 422 486 38,000  Level FlightAware ADS-B
Tue 02:49:17 PM 43.1360 -75.7830 274° West 421 484 38,000  Level FlightAware ADS-B
Tue 02:49:57 PM 43.1420 -75.8860 275° West 420 483 38,000  Level FlightAware ADS-B
Tue 02:50:37 PM 43.1490 -75.9960 275° West 419 482 38,000  Level FlightAware ADS-B
Tue 02:51:22 PM 43.1560 -76.1150 275° West 418 481 38,000  Level FlightAware ADS-B
Tue 02:52:02 PM 43.1600 -76.2170 273° West 418 481 38,000  Level FlightAware ADS-B
Tue 02:52:47 PM 43.1600 -76.3350 270° West 414 476 38,000  Level FlightAware ADS-B
Tue 02:53:22 PM 43.1600 -76.4240 270° West 406 467 38,000  Level FlightAware ADS-B
Tue 02:54:22 PM 43.1600 -76.5780 270° West 401 461 38,000  Level FlightAware ADS-B
Tue 02:55:07 PM 43.1600 -76.6950 270° West 397 457 38,000  Level FlightAware ADS-B
Tue 02:55:47 PM 43.1600 -76.7880 270° West 395 455 38,000  Level FlightAware ADS-B
Tue 02:56:27 PM 43.1590 -76.8940 269° West 391 450 38,000  Level FlightAware ADS-B
Tue 02:57:12 PM 43.1580 -77.0020 269° West 387 445 38,000  Level FlightAware ADS-B
Tue 02:57:52 PM 43.1580 -77.1010 270° West 384 442 38,000  Level FlightAware ADS-B
Tue 02:58:37 PM 43.1570 -77.2100 269° West 381 438 38,000  Level FlightAware ADS-B
Tue 02:59:17 PM 43.1560 -77.3020 269° West 381 438 38,000  Level FlightAware ADS-B
Tue 03:00:02 PM 43.1550 -77.4130 269° West 384 442 38,000  Level FlightAware ADS-B
Tue 03:00:42 PM 43.1540 -77.5120 269° West 385 443 38,000  Level FlightAware ADS-B
Tue 03:01:22 PM 43.1530 -77.6020 269° West 382 440 38,000  Level FlightAware ADS-B
Tue 03:02:07 PM 43.1520 -77.7170 269° West 380 437 38,000  Level FlightAware ADS-B
Tue 03:02:47 PM 43.1510 -77.8120 269° West 379 436 38,000  Level FlightAware ADS-B
Tue 03:03:27 PM 43.1490 -77.9070 268° West 377 434 38,000  Level FlightAware ADS-B
Tue 03:04:12 PM 43.1480 -78.0100 269° West 375 432 38,000  Level FlightAware ADS-B
Tue 03:04:52 PM 43.1460 -78.1080 268° West 374 430 38,000  Level FlightAware ADS-B
Tue 03:05:37 PM 43.1440 -78.2160 269° West 377 434 38,000  Level FlightAware ADS-B
Tue 03:06:17 PM 43.1430 -78.3100 269° West 376 433 38,000  Level FlightAware ADS-B
Tue 03:07:02 PM 43.1410 -78.4160 269° West 377 434 38,000  Level FlightAware ADS-B
Tue 03:07:42 PM 43.1380 -78.5110 268° West 378 435 38,000  Level FlightAware ADS-B
Tue 03:08:22 PM 43.1350 -78.6060 268° West 379 436 38,000  Level FlightAware ADS-B
Tue 03:09:07 PM 43.1320 -78.7180 268° West 382 440 38,000  Level FlightAware ADS-B
Tue 03:09:47 PM 43.1300 -78.8110 268° West 384 442 38,000  Level FlightAware ADS-B
Tue 03:10:27 PM 43.1270 -78.9120 268° West 386 444 38,000  Level FlightAware ADS-B
Tue 03:11:12 PM 43.1230 -79.0210 267° West 388 447 38,000  Level FlightAware ADS-B
Tue 03:11:52 PM 43.1210 -79.1120 268° West 390 449 38,000  Level FlightAware ADS-B
Tue 03:12:37 PM 43.1170 -79.2310 267° West 392 451 38,000  Level FlightAware ADS-B
Tue 03:13:17 PM 43.1130 -79.3300 267° West 393 452 38,000  Level FlightAware ADS-B
Tue 03:14:02 PM 43.1100 -79.4420 268° West 396 456 38,000  Level FlightAware ADS-B
Tue 03:14:42 PM 43.1060 -79.5400 267° West 397 457 38,000 -750 Level FlightAware ADS-B
Tue 03:15:22 PM 43.1030 -79.6390 268° West 400 460 37,000 -1,906 Descending FlightAware ADS-B
Tue 03:16:07 PM 43.0980 -79.7520 267° West 401 461 35,300 -2,250 Descending FlightAware ADS-B
Tue 03:16:42 PM 43.0950 -79.8420 267° West 391 450 34,000 -1,600 Descending FlightAware ADS-B
Tue 03:17:22 PM 43.0920 -79.9290 267° West 368 423 33,300 -1,200 Descending FlightAware ADS-B
Tue 03:18:07 PM 43.0880 -80.0410 267° West 366 421 32,300 -918 Descending FlightAware ADS-B
Tue 03:18:47 PM 43.0840 -80.1350 267° West 366 421 32,000 -225 Descending FlightAware ADS-B
Tue 03:19:27 PM 43.0800 -80.2260 267° West 374 430 32,000  Level FlightAware ADS-B
Tue 03:20:12 PM 43.0750 -80.3340 266° West 375 432 32,000  Level FlightAware ADS-B
Tue 03:20:52 PM 43.0710 -80.4270 267° West 376 433 32,000  Level FlightAware ADS-B
Tue 03:21:32 PM 43.0670 -80.5190 267° West 376 433 32,000  Level FlightAware ADS-B
Tue 03:22:17 PM 43.0620 -80.6330 267° West 376 433 32,000  Level FlightAware ADS-B
Tue 03:22:57 PM 43.0580 -80.7320 267° West 378 435 32,000  Level FlightAware ADS-B
Tue 03:23:42 PM 43.0530 -80.8360 266° West 379 436 32,000  Level FlightAware ADS-B
Tue 03:24:17 PM 43.0490 -80.9140 266° West 380 437 32,000  Level FlightAware ADS-B
Tue 03:25:07 PM 43.0440 -81.0240 266° West 382 440 32,000  Level FlightAware ADS-B
Tue 03:25:37 PM 43.0410 -81.0920 267° West 382 440 32,000  Level FlightAware ADS-B
Tue 03:26:27 PM 43.0370 -81.2160 268° West 381 438 32,000  Level FlightAware ADS-B
Tue 03:27:07 PM 43.0350 -81.3130 268° West 379 436 32,000  Level FlightAware ADS-B
Tue 03:27:52 PM 43.0330 -81.4230 269° West 375 432 32,000  Level FlightAware ADS-B
Tue 03:28:37 PM 43.0310 -81.5310 269° West 375 432 32,000  Level FlightAware ADS-B
Tue 03:29:17 PM 43.0300 -81.6200 269° West 377 434 32,000  Level FlightAware ADS-B
Tue 03:29:57 PM 43.0280 -81.7190 268° West 378 435 32,000  Level FlightAware ADS-B
Tue 03:30:37 PM 43.0260 -81.8100 268° West 378 435 32,000  Level FlightAware ADS-B
Tue 03:31:12 PM 43.0240 -81.8900 268° West 378 435 32,000  Level FlightAware ADS-B
Tue 03:32:07 PM 43.0200 -82.0400 268° West 351 404 32,000  Level FlightAware ADS-B
Tue 03:32:47 PM 43.0180 -82.1260 268° West 334 384 32,000  Level FlightAware ADS-B
Tue 03:33:27 PM 43.0160 -82.2080 268° West 334 384 32,000  Level FlightAware ADS-B
Tue 03:34:07 PM 43.0140 -82.2870 268° West 335 386 32,000  Level FlightAware ADS-B
Tue 03:35:02 PM 43.0110 -82.3950 268° West 336 387 32,000  Level FlightAware ADS-B
Tue 03:35:57 PM 43.0080 -82.5230 268° West 339 390 32,000  Level FlightAware ADS-B
Tue 03:36:47 PM 43.0050 -82.6270 268° West 341 392 32,000  Level FlightAware ADS-B
Tue 03:37:57 PM 43.0000 -82.7800 267° West 342 394 32,000  Level FlightAware ADS-B
Tue 03:38:32 PM 42.9980 -82.8570 268° West 341 392 32,000  Level FlightAware ADS-B
Tue 03:39:12 PM 42.9950 -82.9450 267° West 341 392 32,000  Level FlightAware ADS-B
Tue 03:39:52 PM 42.9920 -83.0300 267° West 342 394 32,000  Level FlightAware ADS-B
Tue 03:40:27 PM 42.9900 -83.1040 268° West 343 395 32,000  Level FlightAware ADS-B
Tue 03:41:27 PM 42.9860 -83.2150 267° West 345 397 32,000  Level FlightAware ADS-B
Tue 03:41:57 PM 42.9840 -83.2890 268° West 344 396 32,000  Level FlightAware ADS-B
Tue 03:42:42 PM 42.9800 -83.3990 267° West 345 397 32,000  Level FlightAware ADS-B
Tue 03:43:32 PM 42.9760 -83.5070 267° West 344 396 32,000  Level FlightAware ADS-B
Tue 03:44:22 PM 42.9720 -83.5990 267° West 344 396 32,000  Level FlightAware ADS-B
Tue 03:45:12 PM 42.9680 -83.7260 268° West 343 395 32,000  Level FlightAware ADS-B
Tue 03:45:52 PM 42.9610 -83.8050 263° West 348 400 32,000  Level FlightAware ADS-B
Tue 03:46:27 PM 42.9540 -83.8830 263° West 350 403 32,000  Level FlightAware ADS-B
Tue 03:47:17 PM 42.9440 -83.9880 263° West 375 432 32,000  Level FlightAware ADS-B
Tue 03:47:57 PM 42.9330 -84.0930 262° West 384 442 32,000  Level FlightAware ADS-B
Tue 03:48:37 PM 42.9230 -84.1930 262° West 386 444 32,000  Level FlightAware ADS-B
Tue 03:49:22 PM 42.9130 -84.3010 263° West 386 444 32,000  Level FlightAware ADS-B
Tue 03:50:02 PM 42.9030 -84.3940 262° West 386 444 32,000  Level FlightAware ADS-B
Tue 03:50:47 PM 42.8920 -84.5040 262° West 389 448 32,000  Level FlightAware ADS-B
Tue 03:51:17 PM 42.8840 -84.5820 262° West 390 449 32,000  Level FlightAware ADS-B
Tue 03:51:57 PM 42.8750 -84.6750 263° West 392 451 32,000  Level FlightAware ADS-B
Tue 03:52:42 PM 42.8630 -84.7870 262° West 376 433 32,000  Level FlightAware ADS-B
Tue 03:53:22 PM 42.8540 -84.8750 262° West 356 410 32,000  Level FlightAware ADS-B
Tue 03:54:02 PM 42.8440 -84.9640 261° West 355 409 32,000  Level FlightAware ADS-B
Tue 03:54:52 PM 42.8330 -85.0730 262° West 355 409 32,000 -200 Level FlightAware ADS-B
Tue 03:55:32 PM 42.8230 -85.1640 262° West 352 405 31,700 -706 Descending FlightAware ADS-B
Tue 03:56:17 PM 42.8130 -85.2560 262° West 349 402 31,000 -1,200 Descending FlightAware ADS-B
Tue 03:56:57 PM 42.8040 -85.3410 262° West 344 396 30,000 -1,500 Descending FlightAware ADS-B
Tue 03:57:37 PM 42.7950 -85.4260 262° West 335 386 29,000 -1,500 Descending FlightAware ADS-B
Tue 03:58:17 PM 42.7840 -85.5100 260° West 351 404 28,000 -1,553 Descending FlightAware ADS-B
Tue 03:59:02 PM 42.7650 -85.6190 257° West 381 438 26,800 -1,624 Descending FlightAware ADS-B
Tue 03:59:42 PM 42.7490 -85.7110 257° West 399 459 25,700 -1,624 Descending FlightAware ADS-B
Tue 04:00:27 PM 42.7280 -85.8220 256° West 399 459 24,500 -1,667 Descending FlightAware ADS-B
Tue 04:01:12 PM 42.7080 -85.9330 256° West 387 445 23,200 -1,624 Descending FlightAware ADS-B
Tue 04:01:52 PM 42.6910 -86.0270 256° West 384 442 22,200 -1,500 Descending FlightAware ADS-B
Tue 04:02:32 PM 42.6750 -86.1150 256° West 372 428 21,200 -1,482 Descending FlightAware ADS-B
Tue 04:03:17 PM 42.6560 -86.2150 256° West 365 420 20,100 -847 Descending FlightAware ADS-B
Tue 04:03:57 PM 42.6400 -86.3040 256° West 361 415 20,000 -776 Descending FlightAware ADS-B
Tue 04:04:42 PM 42.6220 -86.3980 255° West 364 419 19,000 -1,482 Descending FlightAware ADS-B
Tue 04:05:22 PM 42.6060 -86.4860 256° West 356 410 17,900 -1,800 Descending FlightAware ADS-B
Tue 04:06:02 PM 42.5880 -86.5800 255° West 347 399 16,600 -1,694 Descending FlightAware ADS-B
Tue 04:06:47 PM 42.5720 -86.6660 256° West 342 394 15,500 -1,624 Descending FlightAware ADS-B
Tue 04:07:27 PM 42.5540 -86.7470 253° West 344 396 14,300 -1,800 Descending FlightAware ADS-B
Tue 04:08:07 PM 42.5310 -86.8320 250° West 336 387 13,100 -1,765 Descending FlightAware ADS-B
Tue 04:08:52 PM 42.5070 -86.9240 251° West 343 395 11,800 -1,624 Descending FlightAware ADS-B
Tue 04:09:32 PM 42.4860 -87.0010 250° West 348 400 10,800 -1,129 Descending FlightAware ADS-B
Tue 04:10:17 PM 42.4600 -87.0950 249° West 348 400 10,200 -424 Descending FlightAware ADS-B
Tue 04:10:57 PM 42.4370 -87.1780 249° West 346 398 10,200  Level FlightAware ADS-B
Tue 04:11:37 PM 42.4170 -87.2510 250° West 303 349 10,200 -327 Level FlightAware ADS-B
Tue 04:11:52 PM 42.4090 -87.2800 250° West 294 338 9,900 -1,200 Descending FlightAware ADS-B
Tue 04:12:22 PM 42.3950 -87.3320 250° West 285 328 9,300 -1,200 Descending FlightAware ADS-B
Tue 04:12:47 PM 42.3840 -87.3720 250° West 283 326 8,800 -1,309 Descending FlightAware ADS-B
Tue 04:13:17 PM 42.3700 -87.4210 249° West 281 323 8,100 -1,400 Descending FlightAware ADS-B
Tue 04:13:47 PM 42.3570 -87.4680 249° West 277 319 7,400 -1,418 Descending FlightAware ADS-B
Tue 04:14:12 PM 42.3450 -87.5100 249° West 275 316 6,800 -1,350 Descending FlightAware ADS-B
Tue 04:14:27 PM 42.3370 -87.5290 240° Southwest 283 326 6,500 -1,200 Descending FlightAware ADS-B
Tue 04:14:42 PM 42.3170 -87.5480 215° Southwest 291 335 6,200 -600 Descending FlightAware ADS-B
Tue 04:14:57 PM 42.2980 -87.5520 189° South 298 343 6,200  Level FlightAware ADS-B
Tue 04:15:22 PM 42.2620 -87.5470 174° South 297 342 6,200  Level FlightAware ADS-B
Tue 04:15:37 PM 42.2430 -87.5440 173° South 295 339 6,200  Level FlightAware ADS-B
Tue 04:16:02 PM 42.2090 -87.5390 174° South 293 337 6,200  Level FlightAware ADS-B
Tue 04:16:32 PM 42.1670 -87.5330 174° South 280 322 6,200 -200 Level FlightAware ADS-B
Tue 04:17:02 PM 42.1310 -87.5270 173° South 259 298 6,000 -764 Descending FlightAware ADS-B
Tue 04:17:27 PM 42.1020 -87.5220 173° South 253 291 5,500 -1,067 Descending FlightAware ADS-B
Tue 04:17:47 PM 42.0810 -87.5180 172° South 247 284 5,200 -982 Descending FlightAware ADS-B
Tue 04:18:12 PM 42.0590 -87.5300 202° Southwest 4,800 -1,029 Descending FlightAware ADS-B
Tue 04:18:22 PM 42.0520 -87.5400 227° Southwest 218 251 4,600 -450 Descending FlightAware ADS-B
Tue 04:18:52 PM 42.0330 -87.5740 233° Southwest 214 246 4,500 -200 Descending FlightAware ADS-B
Tue 04:19:22 PM 42.0150 -87.6060 233° Southwest 216 249 4,400 -218 Descending FlightAware ADS-B
Tue 04:19:47 PM 42.0040 -87.6370 244° Southwest 212 244 4,300 -436 Descending FlightAware ADS-B
Tue 04:20:17 PM 42.0020 -87.6770 266° West 211 243 4,000 -764 Descending FlightAware ADS-B
Tue 04:20:42 PM 42.0020 -87.7070 270° West 210 242 3,600 -1,200 Descending FlightAware ADS-B
Tue 04:21:12 PM 42.0030 -87.7460 272° West 196 226 2,900 -1,080 Descending FlightAware ADS-B
Tue 04:21:32 PM 42.0030 -87.7670 270° West 185 213 2,700 -873 Descending FlightAware ADS-B
Tue 04:22:07 PM 42.0030 -87.8080 270° West 176 203 2,100 -982 Descending FlightAware ADS-B
Tue 04:22:27 PM 42.0030 -87.8290 270° West 153 176 1,800 -764 Descending FlightAware ADS-B
Tue 04:23:02 PM 42.0030 -87.8600 270° West 147 169 1,400 -738 Descending FlightAware ADS-B
Tue 04:23:32 PM 42.0030 -87.8870 270° West 151 174 1,000 -800 Descending FlightAware ADS-B

Login

Don't have an account? Register now (free) for customized features, flight alerts, and more!